Time;durP1;ratioP1;P1;durP2;ratioP2;P2;SDS_P1;SDS_P2;PMS_P1;PMS_P2;Temp;Humidity;BMP_temperature;BMP_pressure;BME280_temperature;BME280_humidity;BME280_pressure;Samples;Min_cycle;Max_cycle;Signal;HPM_P1;HPM_P2
2023/05/23 00:00:01;;;;;;;19.77;13.35;;;19.00;58.70;;;;;;5054704;28;20057;-56
2023/05/23 00:02:29;;;;;;;18.63;12.73;;;19.00;58.70;;;;;;5055536;28;20048;-56
2023/05/23 00:04:58;;;;;;;16.63;12.10;;;18.90;58.60;;;;;;5060569;28;20066;-57
2023/05/23 00:07:25;;;;;;;21.08;12.57;;;18.90;58.60;;;;;;5061803;28;20060;-54
2023/05/23 00:09:52;;;;;;;18.95;13.68;;;18.80;58.60;;;;;;5057695;28;20048;-57
2023/05/23 00:12:19;;;;;;;21.42;14.20;;;18.80;58.60;;;;;;5056625;28;20050;-52
2023/05/23 00:14:46;;;;;;;19.58;13.65;;;18.80;58.70;;;;;;5058649;28;20064;-54
2023/05/23 00:17:16;;;;;;;21.85;13.75;;;18.70;58.70;;;;;;5055457;28;20430;-54
2023/05/23 00:19:45;;;;;;;20.55;13.82;;;18.70;58.70;;;;;;5061063;28;20057;-54
2023/05/23 00:22:14;;;;;;;22.38;13.73;;;18.70;58.80;;;;;;5058453;28;20068;-56
2023/05/23 00:24:41;;;;;;;15.75;11.73;;;18.70;58.90;;;;;;5057418;28;20052;-54
2023/05/23 00:27:08;;;;;;;15.27;11.15;;;18.60;59.00;;;;;;5058713;28;20055;-54
2023/05/23 00:29:36;;;;;;;15.07;10.60;;;18.60;59.10;;;;;;5060487;28;20059;-55
2023/05/23 00:32:03;;;;;;;14.20;9.35;;;18.50;59.10;;;;;;5059465;28;20053;-57
2023/05/23 00:34:30;;;;;;;15.68;9.50;;;18.50;59.60;;;;;;5055847;28;20044;-55
2023/05/23 00:37:01;;;;;;;17.25;10.32;;;18.50;59.30;;;;;;5060992;28;20055;-50
2023/05/23 00:39:28;;;;;;;14.27;10.95;;;18.50;59.60;;;;;;5056070;28;20055;-51
2023/05/23 00:41:55;;;;;;;15.02;9.63;;;18.50;59.70;;;;;;5058875;28;20048;-52
2023/05/23 00:44:23;;;;;;;14.05;10.38;;;18.40;59.70;;;;;;5057568;28;20052;-51
2023/05/23 00:46:53;;;;;;;14.52;10.77;;;18.40;59.90;;;;;;5053031;28;20051;-58
2023/05/23 00:49:21;;;;;;;15.55;9.95;;;18.40;60.00;;;;;;5059611;28;20052;-56
2023/05/23 00:51:49;;;;;;;17.55;11.10;;;18.40;60.10;;;;;;5059597;28;20059;-55
2023/05/23 00:54:23;;;;;;;22.02;12.00;;;18.40;60.30;;;;;;5055181;28;20053;-53
2023/05/23 00:56:50;;;;;;;;;;;18.30;60.50;;;;;;5060899;28;20060;-55
2023/05/23 00:59:20;;;;;;;17.90;12.63;;;18.30;60.40;;;;;;5058731;28;19924;-54
2023/05/23 01:01:51;;;;;;;22.27;13.30;;;18.20;60.50;;;;;;5059964;28;20063;-58
2023/05/23 01:04:19;;;;;;;20.25;14.45;;;18.20;60.90;;;;;;5064838;22;20049;-48
2023/05/23 01:06:48;;;;;;;22.40;15.43;;;18.20;61.10;;;;;;5054874;28;20052;-43
2023/05/23 01:09:17;;;;;;;20.63;14.35;;;18.10;61.30;;;;;;5053306;28;20068;-44
2023/05/23 01:11:53;;;;;;;20.45;14.52;;;18.10;61.50;;;;;;5057706;28;20731;-48
2023/05/23 01:14:26;;;;;;;19.50;13.73;;;18.00;61.60;;;;;;5057931;28;20053;-45
2023/05/23 01:16:57;;;;;;;16.83;12.35;;;18.00;61.70;;;;;;5058576;28;20056;-42
2023/05/23 01:19:54;;;;;;;18.60;13.57;;;17.90;61.80;;;;;;5057355;28;20056;-45
2023/05/23 01:22:29;;;;;;;18.73;12.60;;;17.90;62.10;;;;;;5055439;28;20064;-46
2023/05/23 01:25:10;;;;;;;20.60;12.57;;;17.80;62.00;;;;;;5054874;28;20049;-44
2023/05/23 01:27:48;;;;;;;16.23;11.73;;;17.70;62.20;;;;;;5052692;28;20075;-46
2023/05/23 01:30:19;;;;;;;16.40;12.13;;;17.80;62.40;;;;;;5051706;28;20056;-43
2023/05/23 01:32:47;;;;;;;16.98;12.00;;;17.70;62.40;;;;;;5050040;28;20044;-44
2023/05/23 01:35:20;;;;;;;18.42;12.77;;;17.70;62.50;;;;;;5057945;28;20500;-46
2023/05/23 01:37:47;;;;;;;21.02;12.88;;;17.70;62.60;;;;;;5056344;28;20067;-45
2023/05/23 01:40:15;;;;;;;17.17;11.82;;;17.70;62.60;;;;;;5053364;28;20522;-46
2023/05/23 01:42:43;;;;;;;23.00;13.00;;;17.60;62.50;;;;;;5056117;28;20415;-49
2023/05/23 01:45:12;;;;;;;20.30;12.63;;;17.60;62.70;;;;;;5054574;28;20056;-44
2023/05/23 01:47:41;;;;;;;18.92;12.75;;;17.60;63.00;;;;;;5055530;28;20068;-48
2023/05/23 01:50:10;;;;;;;16.65;12.75;;;17.50;63.10;;;;;;5055417;28;20059;-43
2023/05/23 01:52:38;;;;;;;19.20;13.30;;;17.50;63.30;;;;;;5053331;28;20044;-44
2023/05/23 01:55:08;;;;;;;18.15;12.90;;;17.50;63.40;;;;;;5058856;28;20059;-47
2023/05/23 01:57:37;;;;;;;21.70;13.70;;;17.40;63.50;;;;;;5061590;28;20060;-45
2023/05/23 02:00:09;;;;;;;17.75;13.75;;;17.40;63.70;;;;;;5056748;28;20091;-45
2023/05/23 02:02:37;;;;;;;22.88;14.05;;;17.40;63.80;;;;;;5058915;28;20049;-46
2023/05/23 02:05:05;;;;;;;20.48;13.68;;;17.40;63.90;;;;;;5058727;28;20056;-43
2023/05/23 02:07:32;;;;;;;20.63;12.18;;;17.40;63.90;;;;;;5055891;28;20053;-42
2023/05/23 02:09:59;;;;;;;18.45;13.00;;;17.40;63.90;;;;;;5057232;28;20059;-42
2023/05/23 02:12:26;;;;;;;16.17;11.52;;;17.40;63.80;;;;;;5056148;28;20050;-44
2023/05/23 02:14:54;;;;;;;18.27;12.00;;;17.30;63.80;;;;;;5058863;28;20052;-50
2023/05/23 02:17:23;;;;;;;13.75;10.95;;;17.40;63.90;;;;;;5058100;28;20057;-45
2023/05/23 02:19:50;;;;;;;16.73;12.10;;;17.40;63.90;;;;;;5054122;28;20057;-45
2023/05/23 02:22:18;;;;;;;15.82;11.20;;;17.40;63.60;;;;;;5058794;28;20522;-44
2023/05/23 02:24:45;;;;;;;16.60;11.77;;;17.40;63.40;;;;;;5055845;28;20055;-48
2023/05/23 02:27:12;;;;;;;15.23;10.50;;;17.40;63.10;;;;;;5058137;28;20511;-48
2023/05/23 02:29:39;;;;;;;22.27;12.80;;;17.40;63.00;;;;;;5057938;28;20099;-46
2023/05/23 02:32:07;;;;;;;15.02;10.60;;;17.40;62.80;;;;;;5053320;28;20064;-46
2023/05/23 02:34:37;;;;;;;13.80;10.60;;;17.40;62.90;;;;;;5057257;28;20518;-45
2023/05/23 02:37:04;;;;;;;13.27;10.23;;;17.50;62.70;;;;;;5053986;28;20072;-44
2023/05/23 02:39:31;;;;;;;15.20;9.75;;;17.50;62.60;;;;;;5053668;28;20049;-46
2023/05/23 02:41:59;;;;;;;14.18;10.50;;;17.50;62.60;;;;;;5058070;28;20060;-49
2023/05/23 02:44:26;;;;;;;12.77;9.45;;;17.50;62.30;;;;;;5062347;28;20447;-49
2023/05/23 02:46:53;;;;;;;13.48;10.00;;;17.50;62.30;;;;;;5059298;28;20063;-43
2023/05/23 02:49:20;;;;;;;11.45;7.35;;;17.50;62.10;;;;;;5060992;28;20057;-48
2023/05/23 02:51:49;;;;;;;10.85;6.85;;;17.50;61.20;;;;;;5060129;28;20059;-45
2023/05/23 02:54:16;;;;;;;12.07;6.90;;;17.50;60.90;;;;;;5038288;28;20056;-42
2023/05/23 02:56:44;;;;;;;9.00;6.57;;;17.50;60.00;;;;;;5037743;28;20103;-44
2023/05/23 02:59:12;;;;;;;8.50;6.10;;;17.50;60.00;;;;;;5041501;28;20468;-42
2023/05/23 03:01:39;;;;;;;8.25;5.80;;;17.50;60.00;;;;;;5038885;28;20200;-43
2023/05/23 03:04:06;;;;;;;8.48;5.88;;;17.40;60.00;;;;;;5039951;28;20413;-41
2023/05/23 03:06:35;;;;;;;7.93;6.63;;;17.50;59.80;;;;;;5039786;28;20073;-43
2023/05/23 03:09:04;;;;;;;9.15;8.18;;;17.40;59.40;;;;;;5040764;28;20053;-42
2023/05/23 03:11:31;;;;;;;12.93;8.80;;;17.40;59.40;;;;;;5036410;28;20057;-45
2023/05/23 03:13:58;;;;;;;13.18;8.93;;;17.40;59.40;;;;;;5035315;28;20065;-46
2023/05/23 03:16:25;;;;;;;13.30;10.13;;;17.40;59.30;;;;;;5035764;28;20053;-45
2023/05/23 03:18:53;;;;;;;11.27;9.48;;;17.40;59.30;;;;;;5033058;28;20612;-45
2023/05/23 03:21:20;;;;;;;12.10;10.02;;;17.40;59.40;;;;;;5037387;28;20065;-43
2023/05/23 03:23:47;;;;;;;14.30;9.48;;;17.30;59.40;;;;;;5033227;28;20088;-44
2023/05/23 03:26:16;;;;;;;11.85;9.52;;;17.40;59.40;;;;;;5036400;28;20049;-47
2023/05/23 03:28:43;;;;;;;12.50;10.10;;;17.30;59.30;;;;;;5034835;28;20433;-41
2023/05/23 03:31:11;;;;;;;12.40;9.13;;;17.30;59.40;;;;;;5028811;28;20053;-46
2023/05/23 03:33:38;;;;;;;11.13;8.40;;;17.40;59.40;;;;;;5034268;28;20064;-43
2023/05/23 03:36:05;;;;;;;11.38;8.25;;;17.30;59.30;;;;;;5035818;28;20428;-43
2023/05/23 03:38:33;;;;;;;11.15;8.52;;;17.30;59.30;;;;;;5037575;28;20571;-45
2023/05/23 03:41:00;;;;;;;9.18;7.10;;;17.30;59.40;;;;;;5031888;28;20052;-45
2023/05/23 03:43:28;;;;;;;9.77;7.70;;;17.30;59.60;;;;;;5037295;28;20136;-42
2023/05/23 03:45:56;;;;;;;7.55;6.32;;;17.40;59.60;;;;;;5033595;28;20496;-46
2023/05/23 03:48:23;;;;;;;8.25;6.40;;;17.40;59.60;;;;;;5034180;28;20075;-43
2023/05/23 03:50:50;;;;;;;9.00;6.75;;;17.40;59.70;;;;;;5036172;28;20064;-45
2023/05/23 03:53:17;;;;;;;8.90;5.93;;;17.40;59.80;;;;;;5034396;28;20049;-43
2023/05/23 03:55:44;;;;;;;9.35;5.15;;;17.40;60.00;;;;;;5034335;28;20049;-44
2023/05/23 03:58:12;;;;;;;7.60;5.57;;;17.40;60.10;;;;;;5037911;28;20060;-44
2023/05/23 04:00:40;;;;;;;11.00;4.93;;;17.50;60.10;;;;;;5032520;28;20052;-45
2023/05/23 04:03:09;;;;;;;7.63;4.68;;;17.40;60.00;;;;;;5036211;28;20435;-46
2023/05/23 04:05:36;;;;;;;9.90;5.88;;;17.40;60.00;;;;;;5033070;28;20060;-46
2023/05/23 04:08:03;;;;;;;6.50;5.15;;;17.40;60.00;;;;;;5036900;28;20047;-42
2023/05/23 04:10:31;;;;;;;6.57;5.07;;;17.40;60.00;;;;;;5036443;28;20063;-43
2023/05/23 04:12:58;;;;;;;7.78;5.47;;;17.40;60.20;;;;;;5033858;28;20503;-43
2023/05/23 04:15:26;;;;;;;8.10;5.65;;;17.40;60.30;;;;;;5031144;28;20409;-46
2023/05/23 04:17:55;;;;;;;11.85;6.28;;;17.40;60.40;;;;;;5025854;28;20049;-46
2023/05/23 04:20:22;;;;;;;8.75;6.80;;;17.30;60.60;;;;;;5032995;28;20057;-45
2023/05/23 04:22:49;;;;;;;8.57;6.35;;;17.30;61.60;;;;;;5037533;28;20061;-45
2023/05/23 04:25:19;;;;;;;10.13;7.50;;;17.30;61.20;;;;;;5035675;28;20056;-41
2023/05/23 04:27:47;;;;;;;10.10;7.18;;;17.30;61.60;;;;;;5026325;28;20061;-43
2023/05/23 04:30:16;;;;;;;14.77;7.88;;;17.30;61.80;;;;;;5029159;28;20484;-45
2023/05/23 04:32:43;;;;;;;12.68;7.57;;;17.30;62.10;;;;;;5038962;28;20057;-43
2023/05/23 04:35:12;;;;;;;12.45;7.60;;;17.20;62.50;;;;;;5039892;28;20072;-43
2023/05/23 04:37:41;;;;;;;13.23;7.88;;;17.20;62.40;;;;;;5035857;28;20481;-45
2023/05/23 04:40:09;;;;;;;14.68;9.52;;;17.10;62.80;;;;;;5037972;28;20508;-46
2023/05/23 04:42:36;;;;;;;11.52;8.32;;;17.10;63.10;;;;;;5038600;28;20124;-46
2023/05/23 04:45:04;;;;;;;12.55;8.35;;;17.10;63.40;;;;;;5034053;28;20053;-41
2023/05/23 04:47:33;;;;;;;13.77;8.60;;;17.10;63.70;;;;;;5035219;28;20443;-46
2023/05/23 04:50:01;;;;;;;14.00;8.60;;;17.00;63.90;;;;;;5040586;28;20049;-43
2023/05/23 04:52:32;;;;;;;21.77;10.02;;;17.00;64.20;;;;;;5037305;28;20445;-47
2023/05/23 04:54:59;;;;;;;17.55;9.32;;;17.00;64.50;;;;;;5040954;28;20381;-45
2023/05/23 04:57:26;;;;;;;16.58;10.45;;;16.90;64.60;;;;;;5025534;28;20056;-47
2023/05/23 04:59:54;;;;;;;16.65;10.27;;;16.90;65.00;;;;;;5033348;28;20063;-47
2023/05/23 05:02:21;;;;;;;15.30;9.63;;;16.80;65.20;;;;;;5038290;28;20404;-44
2023/05/23 05:04:48;;;;;;;17.35;9.88;;;16.80;65.60;;;;;;5039290;28;20049;-43
2023/05/23 05:07:15;;;;;;;20.08;10.00;;;16.80;65.90;;;;;;5037755;28;20497;-44
2023/05/23 05:09:44;;;;;;;18.95;10.95;;;16.70;66.00;;;;;;5038653;28;20053;-47
2023/05/23 05:12:11;;;;;;;17.85;9.55;;;16.70;66.20;;;;;;5026348;28;20057;-43
2023/05/23 05:14:38;;;;;;;19.20;10.10;;;16.70;66.40;;;;;;5032015;28;20484;-46
2023/05/23 05:17:06;;;;;;;17.80;10.18;;;16.60;66.70;;;;;;5035130;28;20052;-43
2023/05/23 05:19:33;;;;;;;17.05;10.25;;;16.60;66.90;;;;;;5040071;28;20060;-42
2023/05/23 05:22:00;;;;;;;18.58;10.15;;;16.60;66.90;;;;;;5040238;28;20445;-45
2023/05/23 05:24:27;;;;;;;12.45;8.48;;;16.60;67.00;;;;;;5037842;28;20056;-45
2023/05/23 05:26:56;;;;;;;15.02;9.68;;;16.60;67.20;;;;;;5036820;28;20059;-45
2023/05/23 05:29:24;;;;;;;15.93;9.35;;;16.60;68.00;;;;;;5037821;28;20060;-43
2023/05/23 05:31:52;;;;;;;16.73;9.38;;;16.60;67.10;;;;;;5031314;28;20067;-43
2023/05/23 05:34:19;;;;;;;17.13;9.90;;;16.60;67.30;;;;;;5034835;28;20057;-47
2023/05/23 05:36:47;;;;;;;18.55;9.70;;;16.60;67.20;;;;;;5036358;28;20040;-45
2023/05/23 05:39:14;;;;;;;15.88;9.27;;;16.60;67.20;;;;;;5039181;28;20091;-47
2023/05/23 05:41:41;;;;;;;14.70;10.35;;;16.60;67.10;;;;;;5032134;28;20053;-43
2023/05/23 05:44:10;;;;;;;16.05;9.77;;;16.60;66.90;;;;;;5032310;28;20052;-47
2023/05/23 05:46:37;;;;;;;13.82;9.05;;;16.70;67.00;;;;;;5032245;28;20053;-43
2023/05/23 05:49:05;;;;;;;14.73;8.88;;;16.60;67.00;;;;;;5036502;28;20052;-46
2023/05/23 05:51:33;;;;;;;16.13;8.73;;;16.60;67.00;;;;;;5040415;28;20060;-43
2023/05/23 05:54:02;;;;;;;14.10;8.13;;;16.70;67.00;;;;;;5032622;28;20048;-44
2023/05/23 05:56:29;;;;;;;15.90;8.45;;;16.70;67.00;;;;;;5033074;28;20520;-42
2023/05/23 05:58:57;;;;;;;14.45;8.80;;;16.70;67.10;;;;;;5031209;28;20853;-43
2023/05/23 06:01:26;;;;;;;15.82;8.27;;;16.60;67.20;;;;;;5030396;28;20049;-45
2023/05/23 06:03:53;;;;;;;18.00;8.55;;;16.70;67.40;;;;;;5037498;28;20056;-46
2023/05/23 06:06:21;;;;;;;13.95;8.55;;;16.70;67.50;;;;;;5038576;28;20067;-46
2023/05/23 06:08:48;;;;;;;12.48;7.43;;;16.70;67.70;;;;;;5038541;28;20504;-43
2023/05/23 06:11:15;;;;;;;14.73;9.40;;;16.70;67.80;;;;;;5031372;28;20065;-41
2023/05/23 06:13:43;;;;;;;15.40;9.55;;;16.70;68.00;;;;;;5034555;28;20416;-44
2023/05/23 06:16:10;;;;;;;17.23;10.65;;;16.70;67.90;;;;;;5033064;28;20136;-40
2023/05/23 06:18:39;;;;;;;19.63;10.48;;;16.70;68.10;;;;;;5036571;28;20052;-43
2023/05/23 06:21:06;;;;;;;17.50;10.07;;;16.70;68.20;;;;;;5039143;28;20052;-43
2023/05/23 06:23:33;;;;;;;21.17;10.07;;;16.70;67.90;;;;;;5036958;28;20064;-44
2023/05/23 06:26:01;;;;;;;18.48;10.82;;;16.70;67.80;;;;;;5028618;28;20400;-45
2023/05/23 06:28:28;;;;;;;16.52;9.57;;;16.70;67.80;;;;;;5032118;28;20536;-44
2023/05/23 06:30:56;;;;;;;16.67;9.02;;;16.70;67.80;;;;;;5031579;28;20062;-43
2023/05/23 06:33:23;;;;;;;14.60;9.43;;;16.80;67.90;;;;;;5035438;28;20059;-45
2023/05/23 06:35:52;;;;;;;19.17;9.50;;;16.80;67.90;;;;;;5040045;28;20049;-44
2023/05/23 06:38:19;;;;;;;13.75;8.88;;;16.80;68.00;;;;;;5038188;28;20060;-43
2023/05/23 06:40:46;;;;;;;15.25;8.88;;;16.80;67.70;;;;;;5031143;28;20053;-42
2023/05/23 06:43:13;;;;;;;14.10;9.45;;;16.90;67.70;;;;;;5029488;28;21067;-41
2023/05/23 06:45:40;;;;;;;17.10;9.15;;;16.90;67.60;;;;;;5034671;28;20048;-41
2023/05/23 06:48:08;;;;;;;19.50;10.73;;;16.90;67.40;;;;;;5034713;28;20063;-44
2023/05/23 06:50:35;;;;;;;15.65;10.48;;;17.00;67.20;;;;;;5035455;28;20422;-40
2023/05/23 06:53:03;;;;;;;21.35;13.93;;;17.00;66.90;;;;;;5035229;28;20059;-46
2023/05/23 06:55:32;;;;;;;20.27;14.07;;;17.00;66.30;;;;;;5030441;28;20045;-42
2023/05/23 06:58:02;;;;;;;22.88;14.73;;;17.00;66.10;;;;;;5035657;28;20489;-43
2023/05/23 07:00:30;;;;;;;19.92;13.35;;;17.00;66.00;;;;;;5034934;28;20511;-45
2023/05/23 07:02:59;;;;;;;25.30;16.77;;;17.00;66.00;;;;;;5038415;28;20060;-44
2023/05/23 07:05:27;;;;;;;25.42;17.77;;;17.00;66.00;;;;;;5034640;28;20050;-45
2023/05/23 07:07:55;;;;;;;30.52;16.88;;;17.00;65.90;;;;;;5034849;28;20412;-46
2023/05/23 07:10:25;;;;;;;29.05;16.52;;;17.00;65.80;;;;;;5035920;28;20663;-43
2023/05/23 07:12:52;;;;;;;24.58;14.48;;;17.00;65.80;;;;;;5031928;28;20405;-42
2023/05/23 07:15:20;;;;;;;24.65;14.30;;;17.00;65.80;;;;;;5017207;28;20049;-44
2023/05/23 07:17:47;;;;;;;27.98;14.98;;;17.00;65.80;;;;;;5015771;28;20413;-46
2023/05/23 07:20:14;;;;;;;21.90;14.07;;;17.00;65.90;;;;;;5014365;28;20062;-45
2023/05/23 07:22:42;;;;;;;22.08;14.55;;;17.00;66.10;;;;;;5017740;28;20049;-46
2023/05/23 07:25:09;;;;;;;20.27;13.57;;;16.90;66.00;;;;;;5018360;28;20379;-45
2023/05/23 07:27:38;;;;;;;22.58;13.00;;;16.90;66.10;;;;;;5016982;28;20393;-42
2023/05/23 07:30:08;;;;;;;20.98;12.50;;;16.90;66.30;;;;;;5014539;28;20064;-43
2023/05/23 07:32:35;;;;;;;18.08;12.15;;;16.90;66.40;;;;;;5017006;28;20060;-41
2023/05/23 07:35:03;;;;;;;21.27;12.30;;;16.90;66.50;;;;;;5015219;28;20049;-46
2023/05/23 07:37:30;;;;;;;18.67;12.18;;;16.90;66.60;;;;;;5016225;28;20049;-45
2023/05/23 07:39:57;;;;;;;24.98;12.82;;;16.90;66.70;;;;;;5010815;28;20076;-44
2023/05/23 07:42:24;;;;;;;21.55;13.27;;;16.90;66.80;;;;;;5016319;28;20053;-45
2023/05/23 07:44:53;;;;;;;20.83;12.93;;;16.90;66.90;;;;;;5011216;28;20049;-46
2023/05/23 07:47:20;;;;;;;27.67;15.20;;;16.90;67.00;;;;;;5015651;28;20057;-41
2023/05/23 07:49:47;;;;;;;28.73;14.95;;;16.90;66.90;;;;;;5005749;28;20531;-44
2023/05/23 07:52:15;;;;;;;29.27;16.63;;;16.90;66.90;;;;;;5012645;28;20062;-44
2023/05/23 07:54:42;;;;;;;22.75;15.23;;;16.90;66.80;;;;;;5013713;28;20390;-46
2023/05/23 07:57:09;;;;;;;32.00;15.80;;;16.90;66.80;;;;;;5012141;28;20068;-45
2023/05/23 07:59:37;;;;;;;26.10;15.15;;;16.90;66.80;;;;;;5020618;28;20441;-43
2023/05/23 08:02:05;;;;;;;27.65;17.27;;;16.90;66.70;;;;;;5017572;28;20057;-47
2023/05/23 08:04:33;;;;;;;28.27;16.15;;;16.90;66.60;;;;;;5018538;28;20053;-44
2023/05/23 08:07:00;;;;;;;29.05;17.42;;;16.90;66.50;;;;;;5018335;28;20045;-44
2023/05/23 08:09:27;;;;;;;21.90;15.90;;;16.90;66.50;;;;;;5023272;28;20061;-43
2023/05/23 08:12:32;;;;;;;25.73;16.70;;;16.90;66.50;;;;;;5016311;28;20060;-48
2023/05/23 08:15:09;;;;;;;;;;;16.80;66.30;;;;;;5007327;28;20058;-44
2023/05/23 09:02:00;;;;;;;32.95;23.65;;;16.90;62.60;;;;;;5004754;28;20480;-46
2023/05/23 09:04:28;;;;;;;35.75;23.13;;;16.90;62.20;;;;;;5017387;28;20060;-43
2023/05/23 09:06:56;;;;;;;33.95;23.63;;;16.90;61.80;;;;;;5019106;28;21029;-46
2023/05/23 09:09:24;;;;;;;29.88;22.23;;;16.90;62.10;;;;;;5017364;28;20049;-47
2023/05/23 09:11:53;;;;;;;27.10;20.70;;;16.90;62.00;;;;;;5016781;28;20053;-47
2023/05/23 09:14:21;;;;;;;27.98;20.60;;;16.90;62.40;;;;;;5016170;28;20057;-46
2023/05/23 09:16:48;;;;;;;27.52;20.05;;;16.90;63.10;;;;;;5014284;28;20050;-45
2023/05/23 09:19:18;;;;;;;30.02;19.08;;;17.00;62.20;;;;;;5013680;28;20386;-46
2023/05/23 09:21:46;;;;;;;25.95;19.25;;;17.00;61.60;;;;;;5015974;28;20056;-45
2023/05/23 09:24:13;;;;;;;27.35;19.52;;;17.10;61.20;;;;;;5018370;28;20054;-46
2023/05/23 09:26:40;;;;;;;41.58;27.40;;;17.10;61.80;;;;;;5016852;28;20421;-45
2023/05/23 09:29:07;;;;;;;35.85;25.80;;;17.10;60.70;;;;;;5016647;28;20060;-43
2023/05/23 09:31:35;;;;;;;40.72;26.58;;;17.20;61.30;;;;;;5015994;28;20060;-44
2023/05/23 09:34:02;;;;;;;41.13;24.55;;;17.20;61.30;;;;;;5019415;28;20058;-43
2023/05/23 09:36:33;;;;;;;33.35;23.08;;;17.30;60.60;;;;;;5012277;28;20569;-47
2023/05/23 09:39:04;;;;;;;31.48;22.60;;;17.40;59.90;;;;;;5010893;28;20054;-43
2023/05/23 09:41:34;;;;;;;33.50;22.25;;;17.40;59.80;;;;;;5014684;28;20061;-46
2023/05/23 09:44:06;;;;;;;36.05;24.23;;;17.50;60.10;;;;;;5012390;28;20053;-41
2023/05/23 09:46:36;;;;;;;30.05;23.35;;;17.50;59.40;;;;;;5013461;28;20053;-46
2023/05/23 09:49:14;;;;;;;38.92;25.88;;;17.60;59.10;;;;;;5018427;28;20058;-44
2023/05/23 09:51:43;;;;;;;37.72;25.95;;;17.60;59.10;;;;;;5018878;28;20069;-48
2023/05/23 09:54:11;;;;;;;36.72;25.83;;;17.60;59.10;;;;;;5018151;28;20058;-46
2023/05/23 09:56:42;;;;;;;36.00;24.95;;;17.70;59.30;;;;;;5016855;28;20053;-43
2023/05/23 09:59:13;;;;;;;38.45;23.52;;;17.60;58.80;;;;;;5022053;28;20054;-48
2023/05/23 10:01:44;;;;;;;34.85;23.40;;;17.70;59.00;;;;;;5016683;28;20064;-45
2023/05/23 10:04:13;;;;;;;32.17;22.38;;;17.70;59.10;;;;;;5020289;28;20065;-43
2023/05/23 10:06:45;;;;;;;30.75;21.73;;;17.70;58.80;;;;;;5022371;28;20049;-46
2023/05/23 10:09:16;;;;;;;32.97;21.63;;;17.80;59.10;;;;;;5013930;28;20050;-44
2023/05/23 10:12:33;;;;;;;25.60;18.30;;;17.80;59.00;;;;;;5016145;28;20052;-43
2023/05/23 10:15:05;;;;;;;25.67;14.63;;;17.90;58.70;;;;;;5014076;28;20068;-46
2023/05/23 10:17:39;;;;;;;23.80;15.25;;;17.90;59.90;;;;;;5020194;28;20482;-41
2023/05/23 10:20:11;;;;;;;;;;;18.00;59.50;;;;;;5012515;28;20062;-48
2023/05/23 10:22:40;;;;;;;26.00;17.25;;;18.10;59.20;;;;;;5018033;28;19988;-44
2023/05/23 10:25:09;;;;;;;24.48;16.77;;;18.10;58.50;;;;;;5016125;28;20061;-41
2023/05/23 10:27:37;;;;;;;27.10;17.70;;;18.10;58.50;;;;;;5015292;28;20057;-43
2023/05/23 10:30:06;;;;;;;25.90;18.10;;;18.10;58.70;;;;;;5015273;28;20057;-49
2023/05/23 10:32:34;;;;;;;26.80;18.83;;;18.10;58.70;;;;;;5006377;28;20049;-46
2023/05/23 10:35:09;;;;;;;31.60;20.63;;;18.00;58.50;;;;;;5004378;28;20045;-48
2023/05/23 10:37:45;;;;;;;33.72;25.38;;;18.00;58.70;;;;;;5015006;28;20515;-45
2023/05/23 10:40:20;;;;;;;37.75;28.38;;;18.00;57.70;;;;;;5017493;28;20049;-42
2023/05/23 10:42:55;;;;;;;39.13;29.50;;;17.90;57.10;;;;;;5019912;28;20064;-43
2023/05/23 10:45:24;;;;;;;42.42;29.55;;;17.90;57.20;;;;;;5014359;28;20088;-42
2023/05/23 10:47:53;;;;;;;45.45;28.58;;;17.80;57.10;;;;;;5014141;28;20481;-44
2023/05/23 10:50:33;;;;;;;39.83;29.20;;;17.80;57.60;;;;;;5014358;28;20133;-42
2023/05/23 10:53:04;;;;;;;46.90;28.63;;;17.70;57.50;;;;;;5015608;28;20054;-44
2023/05/23 10:55:35;;;;;;;44.17;28.85;;;17.60;57.10;;;;;;5017681;28;20409;-43
2023/05/23 10:58:15;;;;;;;43.67;27.42;;;17.60;57.40;;;;;;5017818;28;20052;-42
2023/05/23 11:00:52;;;;;;;37.72;27.85;;;17.50;57.50;;;;;;5018538;28;20057;-48
2023/05/23 11:03:30;;;;;;;40.85;28.20;;;17.50;57.70;;;;;;5018689;28;20052;-44
2023/05/23 11:05:57;;;;;;;47.63;29.65;;;17.40;57.70;;;;;;5019858;28;20401;-44
2023/05/23 11:08:26;;;;;;;46.95;31.58;;;17.40;57.90;;;;;;5016338;28;20520;-43
2023/05/23 11:10:55;;;;;;;52.58;33.83;;;17.30;57.80;;;;;;5019942;28;20521;-43
2023/05/23 11:13:23;;;;;;;54.85;34.63;;;17.30;57.90;;;;;;5015071;28;20529;-43
2023/05/23 11:15:50;;;;;;;55.13;35.25;;;17.20;58.00;;;;;;5017287;28;20050;-45
2023/05/23 11:18:23;;;;;;;57.75;35.50;;;17.20;58.10;;;;;;5017807;28;20501;-42
2023/05/23 11:20:53;;;;;;;54.60;34.50;;;17.20;58.30;;;;;;5011907;28;20054;-44
2023/05/23 11:23:21;;;;;;;48.55;33.63;;;17.10;58.00;;;;;;5013007;28;20493;-43
2023/05/23 11:25:51;;;;;;;59.70;36.35;;;17.10;58.20;;;;;;5011442;28;20054;-41
2023/05/23 11:28:19;;;;;;;61.08;39.03;;;17.10;57.70;;;;;;5018573;28;20049;-45
2023/05/23 11:30:48;;;;;;;54.10;34.65;;;17.10;58.00;;;;;;5017296;28;20135;-47
2023/05/23 11:33:17;;;;;;;59.00;35.58;;;17.10;58.00;;;;;;5011630;28;20490;-42
2023/05/23 11:35:46;;;;;;;53.53;36.55;;;17.00;57.70;;;;;;5017688;28;20068;-41
2023/05/23 11:38:15;;;;;;;53.28;34.58;;;17.10;57.90;;;;;;5019615;28;20057;-42
2023/05/23 11:40:43;;;;;;;46.83;32.42;;;17.10;58.00;;;;;;5020172;28;20056;-45
2023/05/23 11:43:15;;;;;;;48.63;31.15;;;17.10;58.20;;;;;;5019345;28;20390;-41
2023/05/23 11:45:45;;;;;;;49.47;31.35;;;17.20;58.30;;;;;;5014348;28;20058;-45
2023/05/23 11:48:15;;;;;;;42.15;28.02;;;17.20;58.40;;;;;;5019895;28;20379;-45
2023/05/23 11:50:47;;;;;;;46.33;28.88;;;17.30;57.40;;;;;;5013522;28;20057;-42
2023/05/23 11:53:16;;;;;;;41.10;26.27;;;17.30;57.80;;;;;;5017060;28;20049;-42
2023/05/23 11:55:49;;;;;;;46.10;27.27;;;17.40;57.10;;;;;;5015737;28;20413;-44
2023/05/23 11:58:18;;;;;;;41.22;24.70;;;17.50;56.80;;;;;;5020029;28;20052;-43
2023/05/23 12:00:46;;;;;;;43.20;23.77;;;17.60;56.60;;;;;;5018538;28;20068;-41
2023/05/23 12:03:13;;;;;;;42.78;25.27;;;17.60;56.70;;;;;;5017100;28;20057;-46
2023/05/23 12:05:43;;;;;;;39.55;25.27;;;17.70;57.00;;;;;;5019685;28;20056;-44
2023/05/23 12:08:12;;;;;;;41.08;26.40;;;17.80;56.80;;;;;;5018538;28;20045;-43
2023/05/23 12:10:51;;;;;;;38.35;25.30;;;17.80;56.80;;;;;;5019430;28;20379;-45
2023/05/23 12:13:20;;;;;;;38.40;24.40;;;17.90;56.80;;;;;;5015050;28;20516;-46
2023/05/23 12:15:47;;;;;;;40.55;25.23;;;18.00;57.20;;;;;;5017725;28;20057;-46
2023/05/23 12:18:15;;;;;;;40.42;23.23;;;18.10;56.50;;;;;;5017040;28;20060;-44
2023/05/23 12:20:42;;;;;;;35.95;23.08;;;18.10;55.90;;;;;;5015405;28;20058;-47
2023/05/23 12:23:17;;;;;;;39.53;25.52;;;18.10;55.40;;;;;;5018854;28;20064;-45
2023/05/23 12:25:44;;;;;;;31.70;23.73;;;18.20;54.70;;;;;;5019467;28;20500;-45
2023/05/23 12:28:13;;;;;;;36.35;26.13;;;18.20;54.70;;;;;;5020373;28;20052;-44
2023/05/23 12:30:44;;;;;;;43.35;28.23;;;18.20;54.70;;;;;;5015412;28;20060;-43
2023/05/23 12:33:12;;;;;;;46.00;30.30;;;18.20;55.20;;;;;;5016448;28;20045;-45
2023/05/23 12:35:43;;;;;;;45.92;29.77;;;18.10;54.00;;;;;;5015435;28;20053;-44
2023/05/23 12:38:15;;;;;;;49.70;30.85;;;18.10;54.50;;;;;;5018813;28;20386;-43
2023/05/23 12:40:42;;;;;;;44.58;30.45;;;18.10;54.50;;;;;;5018643;28;20421;-44
2023/05/23 12:43:10;;;;;;;45.03;30.85;;;18.10;54.90;;;;;;5021501;28;20061;-45
2023/05/23 12:45:37;;;;;;;51.75;34.22;;;18.10;54.30;;;;;;5019018;28;20053;-45
2023/05/23 12:48:07;;;;;;;48.83;33.38;;;18.00;54.40;;;;;;5022852;28;20057;-40
2023/05/23 12:50:35;;;;;;;49.50;32.85;;;18.00;54.90;;;;;;5018101;28;20049;-45
2023/05/23 12:53:02;;;;;;;52.35;34.28;;;17.90;54.30;;;;;;5021217;28;20400;-44
2023/05/23 12:55:29;;;;;;;52.17;32.88;;;17.90;54.60;;;;;;5020631;28;20060;-45
2023/05/23 12:57:56;;;;;;;50.92;32.88;;;17.80;54.60;;;;;;5024119;28;20490;-45
2023/05/23 13:00:24;;;;;;;50.47;31.58;;;17.80;54.90;;;;;;5021514;28;20060;-48
2023/05/23 13:02:51;;;;;;;40.03;26.88;;;17.70;54.50;;;;;;5017590;28;20064;-46
2023/05/23 13:05:21;;;;;;;33.75;22.40;;;17.70;54.60;;;;;;5013976;28;20707;-46
2023/05/23 13:07:48;;;;;;;25.02;16.80;;;17.70;54.40;;;;;;5021749;28;20390;-43
2023/05/23 13:10:16;;;;;;;25.25;15.63;;;17.70;55.00;;;;;;5021295;28;20057;-47
2023/05/23 13:12:43;;;;;;;22.42;14.85;;;17.70;54.80;;;;;;5018876;28;20057;-47
2023/05/23 13:15:11;;;;;;;24.73;13.63;;;17.80;54.40;;;;;;5016917;28;20057;-45
2023/05/23 13:17:39;;;;;;;21.77;12.75;;;17.70;53.60;;;;;;5017370;28;20050;-48
2023/05/23 13:20:08;;;;;;;17.02;9.85;;;17.70;52.80;;;;;;5018048;28;20049;-43
2023/05/23 13:22:37;;;;;;;14.95;8.27;;;17.70;52.30;;;;;;5015206;28;20061;-46